หน้าหลัก
METAR-TAF:

METAR-TAF

ท่าอากาศยาน :

Wick, สกอตแลนด์

ละติจูด: 58-27N, ลองจิจูด: 003-05W, ความสูง: 39 ม.

การสังเกตสภาพอากาศปัจจุบัน

รายงานได้ทำขึ้นเมื่อ 41 นาทีที่แล้ว ณ เวลา 23:20 UTC
ลม 3 นอตจากตะวันตก/ตะวันตกเฉียงเหนือ
อุณหภูมิ 7°C
ความชื้น 87%
ความกดอากาศ 1021 hPa
ทัศนวิสัย 10 กม. หรือมากกว่า

METAR: EGPC 182320Z AUTO 29003KT 9999 BKN023/// 07/05 Q1021

เวลา: 01:01 (00:01 UTC)

การพยากรณ์

รายงานได้ทำขึ้นเมื่อ 1 ชั่วโมงและ 4 นาทีที่แล้ว ณ เวลา 22:57 UTC
การพยากรณ์มีผลตั้งแต่วันที่ 19 ณ เวลา 00 UTC จนถึงวันที่ 19 ณ เวลา 09 UTC
ลม 5 นอตจากตะวันตก
ทัศนวิสัย 10 กม. หรือมากกว่า
มีเมฆกระจายเป็นบางส่วนที่ความสูง 2000 ฟุต
กำลังกลายเป็น
ตั้งแต่วันที่ 19 ณ เวลา 06 UTC จนถึงวันที่ 19 ณ เวลา 09 UTC
ลม 12 นอตจากใต้/ตะวันตกเฉียงใต้

TAF: EGPC 182257Z 1900/1909 28005KT 9999 SCT020 BECMG 1906/1909 20012KT

สังเกตการณ์สภาพอากาศและพยากรณ์อากาศของสนามบินมากกว่า 4000 แห่ง (รายงาน METAR และ TAF).

สถานีที่ดูได้จะแสดงไว้ด้วยจุดสีเหลืองและสีแดงบนแผนที่.

เลื่อนเมาส์ไปเหนือจุดเพื่อดูชื่อสถานี.

แล้วคลิกเพื่อดูสังเกตการณ์และการพยากรณ์สภาพอากาศ.

ในการเปลี่ยนแผนที่: คลิกที่ปุ่มสีเขียวที่มีกากบาทสีดำเพื่อซูมเข้า; ที่ปุ่มสีเขียวที่มีขีดเพื่อซูมออก; หรือที่ลูกศรสีเขียวเพื่อไปยังแผนที่ที่อยู่ติดกัน.


METAR-TAF: